Time;durP1;ratioP1;P1;durP2;ratioP2;P2;SDS_P1;SDS_P2;PMS_P1;PMS_P2;Temp;Humidity;BMP_temperature;BMP_pressure;BME280_temperature;BME280_humidity;BME280_pressure;Samples;Min_cycle;Max_cycle;Signal;HPM_P1;HPM_P2
2022/01/11 00:02:05;;;;;;;4.00;3.60;;;;;;;15.24;46.32;102603.34;20973265;28;20125;-69
2022/01/11 00:12:09;;;;;;;4.30;3.90;;;;;;;14.91;46.42;102554.00;20990387;28;20040;-69
2022/01/11 00:22:17;;;;;;;4.47;4.07;;;;;;;15.66;46.50;102708.66;20956301;28;20056;-69
2022/01/11 00:32:28;;;;;;;4.05;3.63;;;;;;;14.90;46.92;102556.78;20990177;28;20045;-69
2022/01/11 00:42:31;;;;;;;5.00;4.47;;;;;;;15.16;46.56;102611.81;20952663;28;1134645;-70
2022/01/11 00:52:34;;;;;;;4.00;3.60;;;;;;;15.39;46.44;102687.59;20992543;28;20075;-70
2022/01/11 01:02:35;;;;;;;5.38;4.40;;;;;;;15.60;46.41;102714.34;20991162;28;20048;-70
2022/01/11 01:12:38;;;;;;;4.65;4.15;;;;;;;15.50;46.07;102674.53;20972972;28;20076;-70
2022/01/11 01:22:40;;;;;;;5.70;4.40;;;;;;;15.48;46.16;102676.44;20972572;28;20432;-70
2022/01/11 01:32:42;;;;;;;4.85;3.67;;;;;;;15.39;46.53;102665.28;20973757;28;20234;-70
2022/01/11 01:42:46;;;;;;;4.47;4.00;;;;;;;14.97;46.10;102605.59;20987141;28;20094;-70
2022/01/11 01:52:48;;;;;;;4.82;4.15;;;;;;;15.33;46.13;102671.81;21004506;28;20074;-70
2022/01/11 02:02:50;;;;;;;4.28;3.88;;;;;;;15.23;45.92;102661.53;20987206;28;20045;-69
2022/01/11 02:12:53;;;;;;;4.22;3.83;;;;;;;14.60;46.05;102566.22;20969997;28;20044;-70
2022/01/11 02:22:55;;;;;;;4.60;4.07;;;;;;;15.62;46.19;102747.34;20967861;28;20086;-69
2022/01/11 02:32:57;;;;;;;5.85;4.50;;;;;;;15.00;45.69;102661.78;20984670;28;20486;-70
2022/01/11 02:43:01;;;;;;;6.07;4.65;;;;;;;14.94;46.10;102655.75;20983887;28;20052;-69
2022/01/11 02:53:03;;;;;;;4.53;3.78;;;;;;;14.88;45.88;102634.63;20982078;28;20065;-69
2022/01/11 03:03:23;;;;;;;5.60;4.43;;;;;;;15.56;45.99;102758.41;20981404;28;20382;-70
2022/01/11 03:13:28;;;;;;;4.65;3.97;;;;;;;15.44;45.78;102720.44;20980222;28;20127;-69
2022/01/11 03:23:31;;;;;;;3.95;3.55;;;;;;;15.61;45.94;102745.59;20964275;28;20048;-70
2022/01/11 03:33:33;;;;;;;4.28;3.85;;;;;;;15.62;46.24;102747.34;20980076;28;20083;-69
2022/01/11 03:43:35;;;;;;;5.65;4.70;;;;;;;15.36;45.90;102693.13;20995524;28;20040;-70
2022/01/11 03:53:50;;;;;;;5.03;4.32;;;;;;;15.65;45.62;102752.56;20977171;28;20135;-69
2022/01/11 04:03:53;;;;;;;7.07;5.17;;;;;;;15.63;45.74;102746.41;20975922;28;20041;-69
2022/01/11 04:13:55;;;;;;;5.40;3.97;;;;;;;14.63;45.88;102582.16;20960428;28;20488;-69
2022/01/11 04:24:02;;;;;;;7.00;5.22;;;;;;;14.76;45.38;102611.09;20976192;28;20486;-70
2022/01/11 04:34:04;;;;;;;7.70;5.97;;;;;;;15.46;45.86;102715.88;20974315;28;20048;-70
2022/01/11 04:44:07;;;;;;;8.73;6.47;;;;;;;14.82;45.41;102596.53;20974145;28;20071;-70
2022/01/11 04:54:10;;;;;;;8.68;6.10;;;;;;;15.11;46.08;102651.41;20958635;28;20049;-70
2022/01/11 05:04:13;;;;;;;7.90;5.70;;;;;;;14.92;45.69;102611.22;20973442;28;20068;-68
2022/01/11 05:14:15;;;;;;;9.95;7.03;;;;;;;15.55;46.06;102693.09;20984423;28;20478;-70
2022/01/11 05:24:21;;;;;;;10.18;7.22;;;;;;;15.97;45.54;102744.75;20990231;28;20087;-68
2022/01/11 05:34:27;;;;;;;9.48;6.50;;;;;;;15.20;45.90;102596.41;20989277;28;20614;-70
2022/01/11 05:44:29;;;;;;;10.63;7.05;;;;;;;15.75;46.15;102683.16;20974061;28;20037;-68
2022/01/11 05:54:31;;;;;;;10.95;7.88;;;;;;;15.32;46.52;102600.31;20986837;28;20398;-67
2022/01/11 06:04:34;;;;;;;13.40;9.27;;;;;;;15.31;46.37;102601.25;20969353;28;20144;-70
2022/01/11 06:14:36;;;;;;;11.55;8.40;;;;;;;15.56;46.27;102640.28;20985275;28;20056;-72
2022/01/11 06:24:38;;;;;;;14.50;9.48;;;;;;;16.19;46.46;102762.44;20983852;28;20134;-69
2022/01/11 06:34:42;;;;;;;15.82;9.75;;;;;;;16.22;46.54;102781.97;21001397;28;20135;-70
2022/01/11 06:44:44;;;;;;;13.90;8.82;;;;;;;16.18;46.31;102792.94;21001966;28;20509;-70
2022/01/11 06:54:46;;;;;;;14.98;9.95;;;;;;;16.16;46.44;102811.84;20982111;28;20071;-71
2022/01/11 07:04:48;;;;;;;17.25;10.82;;;;;;;16.13;46.16;102806.63;20998976;28;20074;-70
2022/01/11 07:14:51;;;;;;;19.08;11.20;;;;;;;16.15;46.71;102811.91;20981716;28;20482;-70
2022/01/11 07:24:54;;;;;;;16.52;11.77;;;;;;;16.21;46.08;102814.28;20963344;28;20075;-71
2022/01/11 07:34:55;;;;;;;20.08;11.65;;;;;;;16.20;45.95;102821.50;20978912;28;20122;-70
2022/01/11 07:44:57;;;;;;;16.77;10.30;;;;;;;16.09;45.96;102813.06;20978132;28;20442;-72
2022/01/11 07:55:02;;;;;;;16.15;11.05;;;;;;;16.02;46.33;102803.59;20978189;28;20052;-71
2022/01/11 08:05:06;;;;;;;15.73;9.60;;;;;;;15.51;46.10;102724.59;20960181;28;20476;-71
2022/01/11 08:15:08;;;;;;;14.02;9.20;;;;;;;16.26;46.06;102855.22;20959435;28;20075;-71
2022/01/11 08:25:10;;;;;;;15.63;9.23;;;;;;;16.07;45.96;102845.41;20975209;28;20482;-71
2022/01/11 08:35:14;;;;;;;11.90;8.30;;;;;;;15.58;46.01;102749.31;20974266;28;20072;-71
2022/01/11 08:45:16;;;;;;;12.98;8.13;;;;;;;16.30;46.09;102862.19;20974097;28;20062;-71
2022/01/11 08:55:20;;;;;;;11.65;8.20;;;;;;;15.58;45.78;102760.03;20973686;28;20135;-71
2022/01/11 09:05:23;;;;;;;10.82;7.75;;;;;;;15.62;45.56;102768.81;20957093;28;20098;-71
2022/01/11 09:15:32;;;;;;;11.55;7.30;;;;;;;15.54;45.78;102760.28;20974322;28;20130;-71
2022/01/11 09:25:38;;;;;;;;;;;;;;;16.33;45.24;102875.47;20974126;28;20076;-71
2022/01/11 09:35:44;;;;;;;9.65;7.10;;;;;;;15.66;45.30;102759.66;20971937;28;19928;-71
2022/01/11 09:45:54;;;;;;;9.63;7.28;;;;;;;15.94;45.45;102817.44;20971673;28;20046;-71
2022/01/11 09:55:57;;;;;;;8.13;6.13;;;;;;;15.84;45.42;102802.66;20959091;28;20524;-71
2022/01/11 10:06:16;;;;;;;8.57;6.50;;;;;;;15.68;45.15;102779.25;20969961;28;20046;-71
2022/01/11 10:16:26;;;;;;;8.80;6.30;;;;;;;16.28;45.25;102873.97;20986532;28;20049;-71
2022/01/11 10:26:43;;;;;;;;;;;;;;;16.33;44.94;102878.16;20985058;28;20508;-71
2022/01/11 10:36:46;;;;;;;7.75;5.75;;;;;;;16.12;45.11;102852.38;20985248;28;20361;-71
2022/01/11 10:46:52;;;;;;;7.22;5.10;;;;;;;16.36;45.13;102894.16;20982960;28;20089;-72
2022/01/11 10:57:12;;;;;;;7.23;5.60;;;;;;;15.56;45.59;102736.91;20982477;28;20049;-71
2022/01/11 11:07:15;;;;;;;6.15;4.90;;;;;;;16.12;45.28;102847.84;20980159;28;20044;-71
2022/01/11 11:17:38;;;;;;;6.07;4.72;;;;;;;16.21;45.13;102835.78;20966635;28;20556;-71
2022/01/11 11:28:00;;;;;;;7.00;5.05;;;;;;;16.42;45.65;102870.59;20997623;28;20066;-71
2022/01/11 11:38:04;;;;;;;5.28;4.40;;;;;;;16.25;45.81;102842.72;20979168;28;20040;-72
2022/01/11 11:48:14;;;;;;;5.72;4.90;;;;;;;16.45;45.83;102859.69;20977901;28;20048;-73
2022/01/11 11:58:21;;;;;;;8.80;6.90;;;;;;;16.06;45.08;102800.69;20994916;28;20139;-70
2022/01/11 12:08:37;;;;;;;12.10;8.40;;;;;;;16.28;45.11;102896.31;20976410;28;20037;-73
2022/01/11 12:18:42;;;;;;;12.45;8.65;;;;;;;15.36;46.16;102722.66;20994615;28;20051;-70
2022/01/11 12:29:07;;;;;;;11.23;8.10;;;;;;;16.35;45.94;102870.91;20974924;28;20052;-70
2022/01/11 12:39:09;;;;;;;10.18;7.65;;;;;;;16.21;45.99;102844.72;20984270;28;20060;-70
2022/01/11 12:49:12;;;;;;;9.55;7.00;;;;;;;16.29;45.89;102848.84;20992063;28;20048;-70
2022/01/11 12:59:14;;;;;;;10.45;6.47;;;;;;;15.72;46.05;102747.78;20991614;28;20042;-70
2022/01/11 13:09:16;;;;;;;8.30;6.28;;;;;;;16.40;45.80;102848.28;20991083;28;20053;-71
2022/01/11 13:19:18;;;;;;;8.70;6.10;;;;;;;16.30;45.75;102848.75;20991987;28;20064;-70
2022/01/11 13:29:21;;;;;;;7.63;5.60;;;;;;;16.37;45.90;102849.31;20974018;28;20095;-70
2022/01/11 13:39:35;;;;;;;7.97;5.90;;;;;;;15.36;46.14;102710.13;21007460;28;20075;-70
2022/01/11 13:49:38;;;;;;;6.30;4.97;;;;;;;16.33;46.13;102856.66;21005143;28;20045;-70
2022/01/11 13:59:41;;;;;;;6.75;5.00;;;;;;;16.03;45.82;102800.84;21005729;28;20072;-70
2022/01/11 14:09:50;;;;;;;9.13;5.35;;;;;;;16.07;46.06;102810.47;21003752;28;20052;-70
2022/01/11 14:20:00;;;;;;;6.90;5.07;;;;;;;16.34;45.82;102879.03;20986453;28;20054;-70
2022/01/11 14:30:16;;;;;;;7.40;4.97;;;;;;;15.64;46.32;102726.66;21003394;28;20049;-70
2022/01/11 14:40:21;;;;;;;5.80;4.68;;;;;;;15.87;46.05;102778.34;21000980;28;20471;-70
2022/01/11 14:50:30;;;;;;;6.87;4.80;;;;;;;15.63;45.86;102739.19;21001794;28;20048;-70
2022/01/11 15:00:31;;;;;;;8.63;6.22;;;;;;;15.86;45.91;102819.56;21001108;28;20056;-70
2022/01/11 15:10:35;;;;;;;8.70;5.30;;;;;;;16.40;46.07;102872.50;20998926;28;20122;-70
2022/01/11 15:20:37;;;;;;;7.65;5.47;;;;;;;16.15;45.86;102836.09;20999406;28;20044;-70
2022/01/11 15:30:39;;;;;;;7.15;4.30;;;;;;;15.67;46.09;102772.16;20997457;28;20505;-70
2022/01/11 15:40:40;;;;;;;6.78;5.35;;;;;;;16.23;46.11;102871.50;20996689;28;20068;-70
2022/01/11 15:50:42;;;;;;;7.57;5.18;;;;;;;16.28;45.88;102890.94;20978000;28;20486;-69
2022/01/11 16:00:44;;;;;;;7.85;5.53;;;;;;;15.72;46.08;102796.97;20994300;28;20054;-70
2022/01/11 16:10:46;;;;;;;8.13;5.47;;;;;;;16.30;45.98;102899.81;20995845;28;20045;-70
2022/01/11 16:20:48;;;;;;;8.05;5.75;;;;;;;16.41;45.99;102911.88;20993502;28;20102;-70
2022/01/11 16:30:50;;;;;;;6.00;4.68;;;;;;;16.31;46.17;102895.31;20992897;28;20482;-70
2022/01/11 16:50:57;;;;;;;6.47;4.73;;;;;;;16.48;46.40;102913.28;20992013;28;20051;-70
2022/01/11 17:00:59;;;;;;;7.05;5.00;;;;;;;15.75;45.89;102795.94;20991511;28;20719;-70
2022/01/11 17:11:01;;;;;;;8.90;5.70;;;;;;;16.49;46.07;102940.09;20989616;28;20242;-70
2022/01/11 17:21:03;;;;;;;8.57;6.05;;;;;;;15.79;45.85;102822.56;21007744;28;20051;-70
2022/01/11 17:31:05;;;;;;;8.27;5.97;;;;;;;15.87;45.79;102842.78;21008146;28;20044;-70
2022/01/11 17:41:07;;;;;;;8.63;6.15;;;;;;;16.48;45.76;102950.94;20989168;28;20052;-70
2022/01/11 17:51:09;;;;;;;7.93;5.78;;;;;;;15.75;45.63;102826.34;21005217;28;20473;-69
2022/01/11 18:01:10;;;;;;;8.40;6.35;;;;;;;16.49;45.58;102955.34;21005640;28;20118;-70
2022/01/11 18:11:15;;;;;;;8.05;6.05;;;;;;;15.54;45.36;102868.53;21003865;28;20098;-70
2022/01/11 18:21:17;;;;;;;8.13;6.40;;;;;;;16.20;45.42;102926.28;20986161;28;20053;-69
2022/01/11 18:31:20;;;;;;;8.50;5.82;;;;;;;16.36;45.56;102949.72;20985911;28;20043;-69
2022/01/11 18:41:23;;;;;;;8.73;6.32;;;;;;;15.86;45.57;102873.28;21001304;28;20053;-70
2022/01/11 18:51:26;;;;;;;8.68;6.13;;;;;;;16.33;45.58;102950.72;21001778;28;20086;-70
2022/01/11 19:01:30;;;;;;;7.88;5.85;;;;;;;16.43;45.53;102969.09;20983823;28;20083;-69
2022/01/11 19:11:33;;;;;;;8.55;6.20;;;;;;;15.79;45.30;102868.22;20999107;28;20037;-69
2022/01/11 19:21:35;;;;;;;8.13;6.00;;;;;;;16.14;45.54;102949.91;20998328;28;20072;-69
2022/01/11 19:31:41;;;;;;;8.55;6.70;;;;;;;15.68;45.83;102886.66;20996325;28;20045;-69
2022/01/11 19:41:45;;;;;;;7.65;6.05;;;;;;;16.21;45.50;102997.91;20980542;28;20091;-70
2022/01/11 19:51:48;;;;;;;7.45;5.47;;;;;;;16.12;46.42;103013.59;20996922;28;20062;-69
2022/01/11 20:01:50;;;;;;;9.32;6.30;;;;;;;15.89;46.38;103018.22;20996172;28;20546;-69
2022/01/11 20:11:52;;;;;;;8.85;5.97;;;;;;;15.89;46.58;103045.97;20995553;28;20052;-69
2022/01/11 20:22:05;;;;;;;8.65;6.38;;;;;;;15.80;46.65;103052.59;20976959;28;20051;-69
2022/01/11 20:32:08;;;;;;;11.00;6.47;;;;;;;15.59;46.21;103032.09;20993561;28;20052;-69
2022/01/11 20:42:11;;;;;;;9.25;5.90;;;;;;;14.39;46.43;102895.03;20994184;28;20068;-69
2022/01/11 21:02:17;;;;;;;7.95;5.78;;;;;;;14.58;46.56;102929.97;20973677;28;20105;-69
2022/01/11 21:12:20;;;;;;;7.65;6.20;;;;;;;14.57;46.81;102914.78;20992298;28;20121;-69
2022/01/11 21:22:21;;;;;;;7.53;5.65;;;;;;;13.82;47.17;102819.69;20972982;28;20044;-69
2022/01/11 21:32:23;;;;;;;8.25;6.05;;;;;;;15.00;47.04;103031.94;20991520;28;20432;-69
2022/01/11 21:42:25;;;;;;;8.23;5.75;;;;;;;14.98;47.38;103033.81;20991782;28;20048;-69
2022/01/11 21:52:27;;;;;;;8.38;6.13;;;;;;;14.89;47.42;103041.31;20994258;28;20497;-69
2022/01/11 22:02:28;;;;;;;7.70;5.78;;;;;;;14.77;47.42;103055.22;21006928;28;20070;-69
2022/01/11 22:12:33;;;;;;;7.35;5.57;;;;;;;14.21;47.49;103028.78;21004978;28;20044;-69
2022/01/11 22:22:39;;;;;;;7.10;5.35;;;;;;;14.31;47.67;102993.59;21003214;28;20090;-69
2022/01/11 22:32:41;;;;;;;;;;;;;;;14.58;47.69;103050.59;20984966;28;20044;-69
2022/01/11 22:42:42;;;;;;;7.47;5.68;;;;;;;14.38;48.15;103021.91;21003401;28;19916;-69
2022/01/11 22:52:47;;;;;;;7.47;6.05;;;;;;;13.61;48.31;102910.59;21002014;28;20056;-69
2022/01/11 23:02:51;;;;;;;7.45;5.53;;;;;;;14.20;48.13;103012.78;21000986;28;20080;-69
2022/01/11 23:23:33;;;;;;;7.90;6.78;;;;;;;14.40;48.03;103062.03;20955062;28;20056;-69
2022/01/11 23:33:36;;;;;;;8.50;6.40;;;;;;;14.00;47.94;103019.78;20980952;28;20044;-69
2022/01/11 23:44:29;;;;;;;7.82;6.25;;;;;;;13.49;48.41;102944.91;20998733;28;20053;-69
2022/01/11 23:54:00;;;;;;;8.02;6.07;;;;;;;14.25;48.00;103075.09;20996815;28;20071;-69
